Time;durP1;ratioP1;P1;durP2;ratioP2;P2;SDS_P1;SDS_P2;PMS_P1;PMS_P2;Temp;Humidity;BMP_temperature;BMP_pressure;BME280_temperature;BME280_humidity;BME280_pressure;Samples;Min_cycle;Max_cycle;Signal;HPM_P1;HPM_P2
2022/12/02 00:01:03;;;;;;;20.67;13.20;;;;;;;;;;5042153;28;20803;-52
2022/12/02 00:03:29;;;;;;;17.87;9.73;;;;;;;;;;5055499;28;20442;-53
2022/12/02 00:05:56;;;;;;;24.67;15.00;;;;;;;;;;5041059;28;20425;-54
2022/12/02 00:08:25;;;;;;;21.63;12.40;;;;;;;;;;5056451;28;20591;-55
2022/12/02 00:10:52;;;;;;;26.37;14.20;;;;;;;;;;5056142;28;20566;-54
2022/12/02 00:13:22;;;;;;;25.67;15.20;;;;;;;;;;5054978;28;21164;-55
2022/12/02 00:15:58;;;;;;;23.63;12.63;;;;;;;;;;5040739;28;20475;-53
2022/12/02 00:18:24;;;;;;;18.43;12.67;;;;;;;;;;5051588;28;20441;-54
2022/12/02 00:20:50;;;;;;;18.17;13.27;;;;;;;;;;5034222;28;20496;-55
2022/12/02 00:23:16;;;;;;;29.30;14.77;;;;;;;;;;5053538;28;20445;-54
2022/12/02 00:25:43;;;;;;;25.83;13.40;;;;;;;;;;5019308;28;20887;-53
2022/12/02 00:28:09;;;;;;;31.70;13.00;;;;;;;;;;5060895;28;20435;-51
2022/12/02 00:30:35;;;;;;;23.93;13.20;;;;;;;;;;5053255;28;20517;-52
2022/12/02 00:33:01;;;;;;;26.73;15.87;;;;;;;;;;5060455;28;20440;-52
2022/12/02 00:35:27;;;;;;;25.77;15.07;;;;;;;;;;5033520;28;20935;-53
2022/12/02 00:37:53;;;;;;;22.97;14.60;;;;;;;;;;5053757;28;20473;-52
2022/12/02 00:40:19;;;;;;;25.27;13.73;;;;;;;;;;5035526;28;20437;-54
2022/12/02 00:42:45;;;;;;;26.53;14.20;;;;;;;;;;5052865;28;20541;-51
2022/12/02 00:47:56;;;;;;;27.10;14.50;;;;;;;;;;5060996;28;20808;-54
2022/12/02 00:50:22;;;;;;;26.87;13.40;;;;;;;;;;5053233;28;20469;-53
2022/12/02 00:52:47;;;;;;;26.10;14.10;;;;;;;;;;5059655;28;20455;-52
2022/12/02 00:55:14;;;;;;;27.73;14.97;;;;;;;;;;5017963;28;21899;-52
2022/12/02 00:57:39;;;;;;;26.03;14.67;;;;;;;;;;5049757;28;21011;-54
2022/12/02 01:00:06;;;;;;;29.60;14.70;;;;;;;;;;5055248;28;20544;-53
2022/12/02 01:02:32;;;;;;;26.90;13.40;;;;;;;;;;5052801;28;20512;-56
2022/12/02 01:04:58;;;;;;;25.23;14.40;;;;;;;;;;5046151;28;21735;-53
2022/12/02 01:07:24;;;;;;;21.53;13.37;;;;;;;;;;5044907;28;21119;-55
2022/12/02 01:09:50;;;;;;;25.93;14.30;;;;;;;;;;5051086;28;20424;-54
2022/12/02 01:12:16;;;;;;;28.40;13.97;;;;;;;;;;5035046;28;20465;-55
2022/12/02 01:14:42;;;;;;;22.67;13.60;;;;;;;;;;5057728;28;20462;-55
2022/12/02 01:17:08;;;;;;;24.37;12.50;;;;;;;;;;5039564;28;20493;-54
2022/12/02 01:19:33;;;;;;;30.00;14.30;;;;;;;;;;5057376;28;20461;-55
2022/12/02 01:21:59;;;;;;;33.23;14.30;;;;;;;;;;5034499;28;20505;-52
2022/12/02 01:24:25;;;;;;;23.93;12.83;;;;;;;;;;5052530;28;20442;-52
2022/12/02 01:26:51;;;;;;;22.33;12.57;;;;;;;;;;5013264;28;20446;-54
2022/12/02 01:29:17;;;;;;;26.03;14.07;;;;;;;;;;5052056;28;21015;-53
2022/12/02 01:31:43;;;;;;;31.03;15.27;;;;;;;;;;5050926;28;20580;-52
2022/12/02 01:34:09;;;;;;;27.83;13.50;;;;;;;;;;5056697;28;20432;-53
2022/12/02 01:36:35;;;;;;;30.07;15.00;;;;;;;;;;5033275;28;20920;-54
2022/12/02 01:39:01;;;;;;;25.10;16.20;;;;;;;;;;5057603;28;22261;-53
2022/12/02 01:41:27;;;;;;;25.23;14.87;;;;;;;;;;5030287;28;20682;-55
2022/12/02 01:43:53;;;;;;;25.93;13.77;;;;;;;;;;5057677;28;20847;-53
2022/12/02 01:46:19;;;;;;;28.67;13.90;;;;;;;;;;5029139;28;21681;-53
2022/12/02 01:48:45;;;;;;;26.07;13.93;;;;;;;;;;5057931;28;20495;-53
2022/12/02 01:51:11;;;;;;;24.70;14.47;;;;;;;;;;5028227;28;20710;-52
2022/12/02 01:53:38;;;;;;;27.30;14.33;;;;;;;;;;5045240;28;20542;-53
2022/12/02 01:56:04;;;;;;;32.57;15.80;;;;;;;;;;5023026;28;20583;-53
2022/12/02 01:58:30;;;;;;;25.43;15.33;;;;;;;;;;5051168;28;20464;-53
2022/12/02 02:00:56;;;;;;;23.53;13.83;;;;;;;;;;5050565;28;20449;-53
2022/12/02 02:03:22;;;;;;;30.60;14.00;;;;;;;;;;5051727;28;20464;-53
2022/12/02 02:05:49;;;;;;;29.93;15.10;;;;;;;;;;5044576;28;20883;-52
2022/12/02 02:08:15;;;;;;;28.37;14.70;;;;;;;;;;5046729;28;20487;-52
2022/12/02 02:10:42;;;;;;;25.30;16.27;;;;;;;;;;5053782;28;20816;-53
2022/12/02 02:13:09;;;;;;;31.87;15.73;;;;;;;;;;5051312;28;20439;-53
2022/12/02 02:15:37;;;;;;;26.17;16.10;;;;;;;;;;5043909;28;20437;-52
2022/12/02 02:18:03;;;;;;;29.10;15.90;;;;;;;;;;5038924;28;20437;-54
2022/12/02 02:20:28;;;;;;;33.20;17.67;;;;;;;;;;5048419;28;20551;-53
2022/12/02 02:22:57;;;;;;;29.77;15.93;;;;;;;;;;5049654;28;20445;-52
2022/12/02 02:25:23;;;;;;;39.27;17.27;;;;;;;;;;5058902;28;20537;-54
2022/12/02 02:27:52;;;;;;;19.53;15.37;;;;;;;;;;5012594;28;20497;-53
2022/12/02 02:30:18;;;;;;;25.57;14.93;;;;;;;;;;5055272;28;20979;-54
2022/12/02 02:32:44;;;;;;;24.67;13.90;;;;;;;;;;5046014;28;20449;-52
2022/12/02 02:35:10;;;;;;;27.23;15.00;;;;;;;;;;5058761;28;20488;-52
2022/12/02 02:37:36;;;;;;;31.30;15.47;;;;;;;;;;5033057;28;20445;-54
2022/12/02 02:40:02;;;;;;;31.10;17.20;;;;;;;;;;5054266;28;20524;-55
2022/12/02 02:42:28;;;;;;;23.60;13.30;;;;;;;;;;5044145;28;20954;-53
2022/12/02 02:44:54;;;;;;;30.10;14.47;;;;;;;;;;5053236;28;20447;-53
2022/12/02 02:47:20;;;;;;;34.20;17.63;;;;;;;;;;5036755;28;20429;-53
2022/12/02 02:49:46;;;;;;;32.67;15.07;;;;;;;;;;5057579;28;20479;-53
2022/12/02 02:52:12;;;;;;;31.73;15.90;;;;;;;;;;5030921;28;20569;-53
2022/12/02 02:54:38;;;;;;;24.63;14.40;;;;;;;;;;5055529;28;20464;-53
2022/12/02 02:57:04;;;;;;;25.27;13.67;;;;;;;;;;5015157;28;20448;-52
2022/12/02 02:59:30;;;;;;;25.93;15.23;;;;;;;;;;5058416;28;20547;-52
2022/12/02 03:01:56;;;;;;;27.73;14.13;;;;;;;;;;5014650;28;20454;-52
2022/12/02 03:04:22;;;;;;;28.03;15.60;;;;;;;;;;5060099;28;20445;-53
2022/12/02 03:06:48;;;;;;;24.50;14.20;;;;;;;;;;5029417;28;20433;-54
2022/12/02 03:09:14;;;;;;;24.27;13.33;;;;;;;;;;5052960;28;20445;-53
2022/12/02 03:11:40;;;;;;;26.40;13.77;;;;;;;;;;5033436;28;20500;-53
2022/12/02 03:14:06;;;;;;;29.00;15.13;;;;;;;;;;5059813;28;20962;-54
2022/12/02 03:16:32;;;;;;;26.47;13.73;;;;;;;;;;5027091;28;20519;-57
2022/12/02 03:18:58;;;;;;;30.73;14.67;;;;;;;;;;5061047;28;20441;-54
2022/12/02 03:21:24;;;;;;;29.60;15.40;;;;;;;;;;5068226;28;20422;-53
2022/12/02 03:23:50;;;;;;;25.43;14.33;;;;;;;;;;5063548;28;20447;-53
2022/12/02 03:26:16;;;;;;;26.67;13.60;;;;;;;;;;5048786;28;20445;-53
2022/12/02 03:28:42;;;;;;;27.87;14.30;;;;;;;;;;5057611;28;20428;-55
2022/12/02 03:31:09;;;;;;;26.60;14.90;;;;;;;;;;5072438;28;20465;-55
2022/12/02 03:33:35;;;;;;;33.73;15.40;;;;;;;;;;5075866;28;20442;-55
2022/12/02 03:36:01;;;;;;;27.30;14.87;;;;;;;;;;5028115;28;21445;-52
2022/12/02 03:38:27;;;;;;;28.90;14.97;;;;;;;;;;5059346;28;20438;-53
2022/12/02 03:40:53;;;;;;;25.87;13.30;;;;;;;;;;5049296;28;20544;-52
2022/12/02 03:43:19;;;;;;;24.37;15.40;;;;;;;;;;5041110;28;20444;-51
2022/12/02 03:45:45;;;;;;;21.27;12.50;;;;;;;;;;5055984;28;20449;-55
2022/12/02 03:48:11;;;;;;;29.40;14.83;;;;;;;;;;5034733;28;20437;-55
2022/12/02 03:50:37;;;;;;;21.20;13.20;;;;;;;;;;5059719;28;20473;-55
2022/12/02 03:53:03;;;;;;;30.97;15.37;;;;;;;;;;5039078;28;21085;-55
2022/12/02 03:55:29;;;;;;;24.90;14.33;;;;;;;;;;5074697;28;20445;-53
2022/12/02 03:57:55;;;;;;;23.43;14.37;;;;;;;;;;5037082;28;20960;-55
2022/12/02 04:00:21;;;;;;;29.50;16.40;;;;;;;;;;5055262;28;20860;-54
2022/12/02 04:02:47;;;;;;;35.67;16.80;;;;;;;;;;5038132;28;20485;-54
2022/12/02 04:05:13;;;;;;;25.47;14.17;;;;;;;;;;5059731;28;20449;-55
2022/12/02 04:07:39;;;;;;;30.03;14.20;;;;;;;;;;5016625;28;20443;-53
2022/12/02 04:10:05;;;;;;;34.10;14.40;;;;;;;;;;5058693;28;20468;-54
2022/12/02 04:12:31;;;;;;;23.17;12.60;;;;;;;;;;5034965;28;20449;-53
2022/12/02 04:14:57;;;;;;;25.90;13.60;;;;;;;;;;5057245;28;20495;-53
2022/12/02 04:17:23;;;;;;;25.80;15.23;;;;;;;;;;5033703;28;20453;-54
2022/12/02 04:19:49;;;;;;;29.10;14.20;;;;;;;;;;5059436;28;20521;-54
2022/12/02 04:22:15;;;;;;;28.17;14.97;;;;;;;;;;5054027;28;20496;-56
2022/12/02 04:24:41;;;;;;;24.37;12.93;;;;;;;;;;5060704;28;20441;-52
2022/12/02 04:27:07;;;;;;;36.00;15.73;;;;;;;;;;5033541;28;20455;-53
2022/12/02 04:29:33;;;;;;;19.77;13.47;;;;;;;;;;5056375;28;20437;-53
2022/12/02 04:31:59;;;;;;;24.30;14.43;;;;;;;;;;5056787;28;20481;-52
2022/12/02 04:34:25;;;;;;;27.93;16.10;;;;;;;;;;5058964;28;20422;-52
2022/12/02 04:36:51;;;;;;;25.60;14.30;;;;;;;;;;5029177;28;20448;-52
2022/12/02 04:39:17;;;;;;;27.13;15.60;;;;;;;;;;5048886;28;20921;-52
2022/12/02 04:41:43;;;;;;;29.00;16.47;;;;;;;;;;5055786;28;20446;-52
2022/12/02 04:44:08;;;;;;;24.40;13.73;;;;;;;;;;5056733;28;20457;-52
2022/12/02 04:46:34;;;;;;;23.40;16.80;;;;;;;;;;5043932;28;20518;-52
2022/12/02 04:49:00;;;;;;;32.67;16.33;;;;;;;;;;5045013;28;20551;-55
2022/12/02 04:51:26;;;;;;;27.50;16.00;;;;;;;;;;5054366;28;20885;-54
2022/12/02 04:53:52;;;;;;;25.43;13.50;;;;;;;;;;5054948;28;21005;-54
2022/12/02 04:56:18;;;;;;;26.33;13.10;;;;;;;;;;5051342;28;20442;-54
2022/12/02 04:58:44;;;;;;;28.70;13.80;;;;;;;;;;5039361;28;20447;-53
2022/12/02 05:01:10;;;;;;;30.60;17.10;;;;;;;;;;5052251;28;20588;-53
2022/12/02 05:03:36;;;;;;;26.00;14.50;;;;;;;;;;5013768;28;23287;-53
2022/12/02 05:06:02;;;;;;;42.73;15.27;;;;;;;;;;5053362;28;20430;-53
2022/12/02 05:08:28;;;;;;;30.13;15.00;;;;;;;;;;5025486;28;20558;-54
2022/12/02 05:10:54;;;;;;;26.40;15.50;;;;;;;;;;5042044;28;21071;-54
2022/12/02 05:13:20;;;;;;;27.73;15.13;;;;;;;;;;5047819;28;20437;-53
2022/12/02 05:15:46;;;;;;;23.30;13.33;;;;;;;;;;5025030;28;21187;-54
2022/12/02 05:18:12;;;;;;;27.27;15.10;;;;;;;;;;5055757;28;20517;-53
2022/12/02 05:20:38;;;;;;;30.37;16.20;;;;;;;;;;5028771;28;20930;-53
2022/12/02 05:23:04;;;;;;;26.60;14.80;;;;;;;;;;5059195;28;20465;-53
2022/12/02 05:25:30;;;;;;;32.47;13.17;;;;;;;;;;5050293;28;20475;-53
2022/12/02 05:27:55;;;;;;;27.07;13.97;;;;;;;;;;5056674;28;20499;-53
2022/12/02 05:30:21;;;;;;;38.43;14.83;;;;;;;;;;5056108;28;20452;-53
2022/12/02 05:32:47;;;;;;;24.20;14.80;;;;;;;;;;5047910;28;20452;-57
2022/12/02 05:35:13;;;;;;;26.77;14.17;;;;;;;;;;5029037;28;20467;-52
2022/12/02 05:37:39;;;;;;;23.23;13.13;;;;;;;;;;5059150;28;20957;-53
2022/12/02 05:40:06;;;;;;;28.70;16.50;;;;;;;;;;5005579;28;20484;-55
2022/12/02 05:42:33;;;;;;;21.33;11.73;;;;;;;;;;5058507;28;20424;-55
2022/12/02 05:44:59;;;;;;;30.97;15.10;;;;;;;;;;5027056;28;20438;-55
2022/12/02 05:47:25;;;;;;;26.27;16.00;;;;;;;;;;5057991;28;20502;-54
2022/12/02 05:49:51;;;;;;;24.47;12.10;;;;;;;;;;5053541;28;20919;-52
2022/12/02 05:52:22;;;;;;;28.20;15.40;;;;;;;;;;5054375;28;21021;-53
2022/12/02 05:54:48;;;;;;;31.70;14.77;;;;;;;;;;5034781;28;20441;-52
2022/12/02 05:57:14;;;;;;;37.93;15.40;;;;;;;;;;5057447;28;20536;-53
2022/12/02 05:59:40;;;;;;;28.47;15.93;;;;;;;;;;5036087;28;20572;-56
2022/12/02 06:02:11;;;;;;;32.43;16.60;;;;;;;;;;5054361;28;20862;-53
2022/12/02 06:04:37;;;;;;;35.83;16.87;;;;;;;;;;5027094;28;20437;-53
2022/12/02 06:07:08;;;;;;;27.53;13.67;;;;;;;;;;5056540;28;20432;-52
2022/12/02 06:09:34;;;;;;;31.50;14.43;;;;;;;;;;5009895;28;21298;-53
2022/12/02 06:12:00;;;;;;;31.90;15.20;;;;;;;;;;5052620;28;20476;-54
2022/12/02 06:14:28;;;;;;;28.20;14.23;;;;;;;;;;5029807;28;20638;-53
2022/12/02 06:16:55;;;;;;;28.10;13.70;;;;;;;;;;5053074;28;20445;-53
2022/12/02 06:19:35;;;;;;;22.33;14.43;;;;;;;;;;5029551;28;20466;-52
2022/12/02 06:22:01;;;;;;;24.87;14.70;;;;;;;;;;5076819;28;21150;-54
2022/12/02 06:24:28;;;;;;;29.47;15.27;;;;;;;;;;5041715;28;20449;-54
2022/12/02 06:26:54;;;;;;;25.07;13.80;;;;;;;;;;5051720;28;20453;-53
2022/12/02 06:29:21;;;;;;;36.10;15.50;;;;;;;;;;5058940;28;20566;-55
2022/12/02 06:31:46;;;;;;;30.30;16.30;;;;;;;;;;5045334;28;20500;-52
2022/12/02 06:34:27;;;;;;;27.53;13.27;;;;;;;;;;5059228;28;20433;-53
2022/12/02 06:36:55;;;;;;;25.73;12.40;;;;;;;;;;5055317;28;20471;-54
2022/12/02 06:39:22;;;;;;;26.23;12.50;;;;;;;;;;5029598;28;21001;-53
2022/12/02 06:41:48;;;;;;;24.00;13.33;;;;;;;;;;5043814;28;20506;-54
2022/12/02 06:47:24;;;;;;;25.47;12.73;;;;;;;;;;5049821;28;20628;-53
2022/12/02 06:49:50;;;;;;;27.53;15.17;;;;;;;;;;5053130;28;20841;-53
2022/12/02 06:52:19;;;;;;;27.97;14.40;;;;;;;;;;5042201;28;20510;-54
2022/12/02 06:54:45;;;;;;;24.67;12.20;;;;;;;;;;5059377;28;21252;-53
2022/12/02 06:57:11;;;;;;;25.13;12.90;;;;;;;;;;5036401;28;20442;-52
2022/12/02 06:59:37;;;;;;;27.37;13.50;;;;;;;;;;5063227;28;21227;-53
2022/12/02 07:02:06;;;;;;;23.13;13.70;;;;;;;;;;5040591;28;21040;-53
2022/12/02 07:04:33;;;;;;;30.57;15.37;;;;;;;;;;5060137;28;20429;-54
2022/12/02 07:07:01;;;;;;;27.43;15.23;;;;;;;;;;5058502;28;20810;-54
2022/12/02 07:09:41;;;;;;;21.73;13.40;;;;;;;;;;5058019;28;20449;-56
2022/12/02 07:12:12;;;;;;;31.93;14.30;;;;;;;;;;5023742;28;20480;-56
2022/12/02 07:14:44;;;;;;;28.60;15.53;;;;;;;;;;5059553;28;20499;-56
2022/12/02 07:17:20;;;;;;;26.50;14.43;;;;;;;;;;5054267;28;20545;-59
2022/12/02 07:19:48;;;;;;;31.50;14.43;;;;;;;;;;5007987;28;20449;-55
2022/12/02 07:22:21;;;;;;;28.27;15.40;;;;;;;;;;5075359;28;20410;-57
2022/12/02 07:24:50;;;;;;;31.60;16.93;;;;;;;;;;5056815;28;20698;-56
2022/12/02 07:27:27;;;;;;;32.33;17.97;;;;;;;;;;5072108;28;20472;-58
2022/12/02 07:29:53;;;;;;;30.17;14.77;;;;;;;;;;5046012;28;20805;-57
2022/12/02 07:32:19;;;;;;;36.40;15.57;;;;;;;;;;5066346;28;20484;-56
2022/12/02 07:34:45;;;;;;;30.07;15.87;;;;;;;;;;5018894;28;20504;-54
2022/12/02 07:37:11;;;;;;;30.70;14.93;;;;;;;;;;5060916;28;21017;-55
2022/12/02 07:39:37;;;;;;;28.13;18.53;;;;;;;;;;5038200;28;20486;-56
2022/12/02 07:42:03;;;;;;;33.83;14.47;;;;;;;;;;5015410;28;20880;-55
2022/12/02 07:44:29;;;;;;;34.13;18.37;;;;;;;;;;5060129;28;20495;-56
2022/12/02 07:46:55;;;;;;;38.17;17.70;;;;;;;;;;5054375;28;20421;-56
2022/12/02 07:49:21;;;;;;;35.90;16.97;;;;;;;;;;5053352;28;20533;-57
2022/12/02 07:51:47;;;;;;;32.50;16.63;;;;;;;;;;5039097;28;20679;-59
2022/12/02 07:54:13;;;;;;;46.63;20.17;;;;;;;;;;5062470;28;20444;-56
2022/12/02 07:56:39;;;;;;;35.17;16.50;;;;;;;;;;5048589;28;20721;-60
2022/12/02 07:59:05;;;;;;;34.90;17.37;;;;;;;;;;5043008;28;20876;-57
2022/12/02 08:01:31;;;;;;;28.13;16.73;;;;;;;;;;5058281;28;20532;-54
2022/12/02 08:03:57;;;;;;;32.30;16.20;;;;;;;;;;5048631;28;20860;-55
2022/12/02 08:06:23;;;;;;;29.43;16.47;;;;;;;;;;5047511;28;20530;-58
2022/12/02 08:08:49;;;;;;;36.17;18.00;;;;;;;;;;5040838;28;20826;-56
2022/12/02 08:11:15;;;;;;;33.67;16.77;;;;;;;;;;5058282;28;21173;-57
2022/12/02 08:13:41;;;;;;;36.53;16.43;;;;;;;;;;5058453;28;20528;-57
2022/12/02 08:16:16;;;;;;;37.03;16.93;;;;;;;;;;5059875;28;20437;-60
2022/12/02 08:18:42;;;;;;;37.73;20.23;;;;;;;;;;5020936;28;20441;-54
2022/12/02 08:21:08;;;;;;;33.03;16.33;;;;;;;;;;5058266;28;20444;-55
2022/12/02 08:23:34;;;;;;;36.10;16.73;;;;;;;;;;5057254;28;20517;-55
2022/12/02 08:26:00;;;;;;;29.50;15.80;;;;;;;;;;5052155;28;20998;-59
2022/12/02 08:28:26;;;;;;;35.03;15.20;;;;;;;;;;5033125;28;20433;-55
2022/12/02 08:30:53;;;;;;;38.80;17.27;;;;;;;;;;5060337;28;20472;-54
2022/12/02 08:33:19;;;;;;;40.70;16.70;;;;;;;;;;5046938;28;20433;-57
2022/12/02 08:35:45;;;;;;;32.67;15.07;;;;;;;;;;5058633;28;20452;-55
2022/12/02 08:38:11;;;;;;;39.27;16.90;;;;;;;;;;5053645;28;20430;-57
2022/12/02 08:40:37;;;;;;;27.23;14.97;;;;;;;;;;5062670;28;20468;-55
2022/12/02 08:43:03;;;;;;;30.10;16.40;;;;;;;;;;5032907;28;20541;-54
2022/12/02 08:45:29;;;;;;;32.40;16.57;;;;;;;;;;5057233;28;21073;-57
2022/12/02 08:47:55;;;;;;;28.13;13.87;;;;;;;;;;5036518;28;20422;-55
2022/12/02 08:50:21;;;;;;;34.83;16.87;;;;;;;;;;5059660;28;20437;-57
2022/12/02 08:52:47;;;;;;;29.70;14.70;;;;;;;;;;5011429;28;20552;-57
2022/12/02 08:55:13;;;;;;;29.57;14.07;;;;;;;;;;5062853;28;20441;-56
2022/12/02 08:57:39;;;;;;;25.70;14.57;;;;;;;;;;5033427;28;20666;-56
2022/12/02 09:00:05;;;;;;;36.80;14.90;;;;;;;;;;5061327;28;20426;-58
2022/12/02 09:02:31;;;;;;;25.10;13.07;;;;;;;;;;5040246;28;20524;-56
2022/12/02 09:04:57;;;;;;;29.80;13.83;;;;;;;;;;5060309;28;21052;-56
2022/12/02 09:07:23;;;;;;;40.20;15.43;;;;;;;;;;5057232;28;20698;-56
2022/12/02 09:09:49;;;;;;;32.90;14.60;;;;;;;;;;5049495;28;20522;-55
2022/12/02 09:12:15;;;;;;;35.23;16.33;;;;;;;;;;5035765;28;20675;-57
2022/12/02 09:14:41;;;;;;;21.87;13.33;;;;;;;;;;5054063;28;20980;-57
2022/12/02 09:17:07;;;;;;;23.43;13.13;;;;;;;;;;5046140;28;20433;-57
2022/12/02 09:19:33;;;;;;;31.17;13.67;;;;;;;;;;5039683;28;20441;-56
2022/12/02 09:22:02;;;;;;;24.70;12.63;;;;;;;;;;5029719;28;20752;-56
2022/12/02 09:24:29;;;;;;;27.27;12.63;;;;;;;;;;5040360;28;20434;-58
2022/12/02 09:26:55;;;;;;;31.83;12.70;;;;;;;;;;5057352;28;20440;-57
2022/12/02 09:29:21;;;;;;;25.60;13.40;;;;;;;;;;5057673;28;20429;-55
2022/12/02 09:31:47;;;;;;;28.10;12.97;;;;;;;;;;5050968;28;20534;-58
2022/12/02 09:34:13;;;;;;;21.90;12.93;;;;;;;;;;5027205;28;20491;-57
2022/12/02 09:36:39;;;;;;;19.53;11.10;;;;;;;;;;5059670;28;21045;-56
2022/12/02 09:39:05;;;;;;;22.90;12.07;;;;;;;;;;5038922;28;20786;-56
2022/12/02 09:41:31;;;;;;;25.17;12.20;;;;;;;;;;5057800;28;20429;-55
2022/12/02 09:43:57;;;;;;;24.57;10.77;;;;;;;;;;5025648;28;20443;-55
2022/12/02 09:46:22;;;;;;;18.53;12.13;;;;;;;;;;5060526;28;20946;-57
2022/12/02 09:48:48;;;;;;;24.73;11.00;;;;;;;;;;5023038;28;20938;-56
2022/12/02 09:51:14;;;;;;;28.63;10.30;;;;;;;;;;5059987;28;20531;-57
2022/12/02 09:53:40;;;;;;;25.40;11.87;;;;;;;;;;5007230;28;20440;-55
2022/12/02 09:56:14;;;;;;;16.00;9.60;;;;;;;;;;5056270;28;20450;-55
2022/12/02 09:58:40;;;;;;;14.70;10.27;;;;;;;;;;5030149;28;20477;-56
2022/12/02 10:01:08;;;;;;;17.60;11.13;;;;;;;;;;5056093;28;20506;-54
2022/12/02 10:03:34;;;;;;;15.53;9.37;;;;;;;;;;5025275;28;21237;-57
2022/12/02 10:06:00;;;;;;;15.60;11.13;;;;;;;;;;5056530;28;20817;-56
2022/12/02 10:08:26;;;;;;;15.60;9.90;;;;;;;;;;5050274;28;20437;-57
2022/12/02 10:10:53;;;;;;;19.17;9.83;;;;;;;;;;5058986;28;20481;-57
2022/12/02 10:13:19;;;;;;;16.17;8.43;;;;;;;;;;5032228;28;21582;-61
2022/12/02 10:15:45;;;;;;;15.10;8.90;;;;;;;;;;5045061;28;20437;-56
2022/12/02 10:18:21;;;;;;;11.83;7.73;;;;;;;;;;5043448;28;20453;-57
2022/12/02 10:20:49;;;;;;;20.80;9.00;;;;;;;;;;5038949;28;20459;-56
2022/12/02 10:23:17;;;;;;;14.07;9.23;;;;;;;;;;5056497;28;20495;-57
2022/12/02 10:25:49;;;;;;;21.97;9.30;;;;;;;;;;5049486;28;20437;-54
2022/12/02 10:28:31;;;;;;;17.10;8.40;;;;;;;;;;5022011;28;20784;-56
2022/12/02 10:31:00;;;;;;;15.50;9.50;;;;;;;;;;5049740;28;21625;-57
2022/12/02 10:33:27;;;;;;;15.13;8.73;;;;;;;;;;5038204;28;21074;-57
2022/12/02 10:35:53;;;;;;;17.30;7.83;;;;;;;;;;5043814;28;20445;-56
2022/12/02 10:38:29;;;;;;;18.57;10.67;;;;;;;;;;5041555;28;21504;-54
2022/12/02 10:41:14;;;;;;;16.20;8.80;;;;;;;;;;5061636;28;20436;-56
2022/12/02 10:44:03;;;;;;;14.03;7.00;;;;;;;;;;5039758;28;20449;-54
2022/12/02 10:46:29;;;;;;;15.97;9.60;;;;;;;;;;5058445;28;20481;-56
2022/12/02 10:48:55;;;;;;;12.67;7.87;;;;;;;;;;5016972;28;20524;-55
2022/12/02 10:51:21;;;;;;;13.13;7.60;;;;;;;;;;5061590;28;20472;-57
2022/12/02 10:53:48;;;;;;;16.97;8.60;;;;;;;;;;5060326;28;20425;-55
2022/12/02 10:56:15;;;;;;;18.13;8.87;;;;;;;;;;5059485;28;20425;-57
2022/12/02 10:58:41;;;;;;;9.93;5.83;;;;;;;;;;5030358;28;20441;-56
2022/12/02 11:01:08;;;;;;;12.90;7.47;;;;;;;;;;5059465;28;20449;-57
2022/12/02 11:03:34;;;;;;;14.33;7.03;;;;;;;;;;5046992;28;20471;-57
2022/12/02 11:06:01;;;;;;;12.87;7.00;;;;;;;;;;5066401;28;20441;-55
2022/12/02 11:08:28;;;;;;;12.47;7.40;;;;;;;;;;5033918;28;20468;-56
2022/12/02 11:11:12;;;;;;;10.10;6.10;;;;;;;;;;5075957;28;20495;-57
2022/12/02 11:13:48;;;;;;;10.80;6.50;;;;;;;;;;5036644;28;21701;-58
2022/12/02 11:16:29;;;;;;;11.17;6.40;;;;;;;;;;5064028;28;20441;-57
2022/12/02 11:18:58;;;;;;;11.43;6.73;;;;;;;;;;5031193;28;20448;-57
2022/12/02 11:21:30;;;;;;;11.47;6.53;;;;;;;;;;5050610;28;20965;-57
2022/12/02 11:24:15;;;;;;;8.77;5.63;;;;;;;;;;5035881;28;20799;-56
2022/12/02 11:26:59;;;;;;;10.67;5.80;;;;;;;;;;5054200;28;20429;-58
2022/12/02 11:29:45;;;;;;;9.40;6.37;;;;;;;;;;5053253;28;20440;-57
2022/12/02 11:32:17;;;;;;;10.43;6.50;;;;;;;;;;4983003;28;20912;-60
2022/12/02 11:34:46;;;;;;;12.33;8.60;;;;;;;;;;5059804;28;20429;-57
2022/12/02 11:37:28;;;;;;;10.37;6.00;;;;;;;;;;5048470;28;20457;-57
2022/12/02 11:39:58;;;;;;;13.00;6.80;;;;;;;;;;5056794;28;20437;-57
2022/12/02 11:42:24;;;;;;;12.80;7.47;;;;;;;;;;5030310;28;21227;-56
2022/12/02 11:44:50;;;;;;;11.93;6.43;;;;;;;;;;5059198;28;20441;-57
2022/12/02 11:47:24;;;;;;;9.07;6.13;;;;;;;;;;5052098;28;20434;-56
2022/12/02 11:49:50;;;;;;;8.90;6.07;;;;;;;;;;5062229;28;20521;-56
2022/12/02 11:52:17;;;;;;;9.20;6.20;;;;;;;;;;5023946;28;20738;-56
2022/12/02 11:54:47;;;;;;;9.43;6.10;;;;;;;;;;5059882;28;20428;-58
2022/12/02 11:57:20;;;;;;;9.30;5.40;;;;;;;;;;5024556;28;21144;-57
2022/12/02 11:59:46;;;;;;;8.40;5.77;;;;;;;;;;5058459;28;20453;-56
2022/12/02 12:02:19;;;;;;;12.30;5.83;;;;;;;;;;5011335;28;22579;-57
2022/12/02 12:04:45;;;;;;;9.37;6.70;;;;;;;;;;5054962;28;20437;-57
2022/12/02 12:07:11;;;;;;;10.33;6.87;;;;;;;;;;5027029;28;20442;-55
2022/12/02 12:09:37;;;;;;;9.17;5.37;;;;;;;;;;5044219;28;20425;-56
2022/12/02 12:12:14;;;;;;;13.27;6.57;;;;;;;;;;5042119;28;21656;-56
2022/12/02 12:15:00;;;;;;;8.47;6.47;;;;;;;;;;5061309;28;20974;-56
2022/12/02 12:17:43;;;;;;;10.20;6.07;;;;;;;;;;5036593;28;20506;-56
2022/12/02 12:20:14;;;;;;;10.40;5.70;;;;;;;;;;5058343;28;20422;-58
2022/12/02 12:22:40;;;;;;;8.80;6.07;;;;;;;;;;5033822;28;20425;-57
2022/12/02 12:25:40;;;;;;;8.00;5.10;;;;;;;;;;5053920;28;20520;-56
2022/12/02 12:28:42;;;;;;;9.70;6.17;;;;;;;;;;5017087;28;20430;-56
2022/12/02 12:31:08;;;;;;;7.73;4.27;;;;;;;;;;5018459;28;20586;-56
2022/12/02 12:33:33;;;;;;;8.63;5.50;;;;;;;;;;5020670;28;20573;-56
2022/12/02 12:35:59;;;;;;;10.47;6.10;;;;;;;;;;5032114;28;20458;-56
2022/12/02 12:38:26;;;;;;;8.60;4.87;;;;;;;;;;5008712;28;20431;-55
2022/12/02 12:40:53;;;;;;;8.40;5.80;;;;;;;;;;5049372;28;20434;-57
2022/12/02 12:43:19;;;;;;;5.87;4.73;;;;;;;;;;5031436;28;20426;-56
2022/12/02 12:45:45;;;;;;;9.10;4.97;;;;;;;;;;5057508;28;20499;-55
2022/12/02 12:48:11;;;;;;;6.53;5.30;;;;;;;;;;5036678;28;20540;-55
2022/12/02 12:50:40;;;;;;;7.80;5.27;;;;;;;;;;5051291;28;20488;-57
2022/12/02 12:53:06;;;;;;;6.83;4.27;;;;;;;;;;5053444;28;20520;-55
2022/12/02 12:55:32;;;;;;;4.77;3.73;;;;;;;;;;5058286;28;21021;-56
2022/12/02 12:57:58;;;;;;;7.53;4.27;;;;;;;;;;5028225;28;20582;-56
2022/12/02 13:00:24;;;;;;;8.23;4.80;;;;;;;;;;5059234;28;20425;-56
2022/12/02 13:02:50;;;;;;;4.80;2.93;;;;;;;;;;5017567;28;20514;-55
2022/12/02 13:05:22;;;;;;;6.33;4.20;;;;;;;;;;5026954;28;20441;-59
2022/12/02 13:08:21;;;;;;;5.53;3.97;;;;;;;;;;5034012;28;20437;-56
2022/12/02 13:10:40;;;;;;;5.70;4.20;;;;;;;;;;5050155;28;20824;-56
2022/12/02 13:13:06;;;;;;;5.97;3.90;;;;;;;;;;5040794;28;20483;-57
2022/12/02 13:15:33;;;;;;;5.40;4.40;;;;;;;;;;5044119;28;20516;-56
2022/12/02 13:17:59;;;;;;;6.87;3.90;;;;;;;;;;5043205;28;20453;-55
2022/12/02 13:20:25;;;;;;;6.07;3.77;;;;;;;;;;5039468;28;20438;-55
2022/12/02 13:22:51;;;;;;;4.70;4.23;;;;;;;;;;5037665;28;20459;-58
2022/12/02 13:25:16;;;;;;;7.23;4.97;;;;;;;;;;5052781;28;20511;-58
2022/12/02 13:27:42;;;;;;;6.57;4.07;;;;;;;;;;5057807;28;20442;-56
2022/12/02 13:30:11;;;;;;;5.57;4.53;;;;;;;;;;5019315;28;20528;-54
2022/12/02 13:32:37;;;;;;;5.23;4.03;;;;;;;;;;5068549;28;20477;-56
2022/12/02 13:35:03;;;;;;;7.27;4.10;;;;;;;;;;5014235;28;20434;-56
2022/12/02 13:37:29;;;;;;;6.20;4.37;;;;;;;;;;5047065;28;20540;-55
2022/12/02 13:39:55;;;;;;;6.53;4.97;;;;;;;;;;5004809;28;21070;-56
2022/12/02 13:42:21;;;;;;;6.97;4.00;;;;;;;;;;5049371;28;20581;-57
2022/12/02 13:44:47;;;;;;;4.57;3.60;;;;;;;;;;5023217;28;20439;-60
2022/12/02 13:47:13;;;;;;;7.13;4.33;;;;;;;;;;5053319;28;20441;-59
2022/12/02 13:49:39;;;;;;;8.00;4.80;;;;;;;;;;5022153;28;20558;-57
2022/12/02 13:52:08;;;;;;;6.30;3.60;;;;;;;;;;5053319;28;20468;-57
2022/12/02 13:54:37;;;;;;;3.93;3.17;;;;;;;;;;5025724;28;20852;-57
2022/12/02 13:57:04;;;;;;;7.20;4.50;;;;;;;;;;5042027;28;20645;-54
2022/12/02 13:59:30;;;;;;;6.27;4.80;;;;;;;;;;5027071;28;20433;-56
2022/12/02 14:01:56;;;;;;;4.67;4.10;;;;;;;;;;5037237;28;21125;-58
2022/12/02 14:04:25;;;;;;;7.80;4.23;;;;;;;;;;5035772;28;20798;-57
2022/12/02 14:06:57;;;;;;;5.37;3.60;;;;;;;;;;5038038;28;20466;-57
2022/12/02 14:09:23;;;;;;;8.60;4.07;;;;;;;;;;5026287;28;21194;-57
2022/12/02 14:11:49;;;;;;;6.00;4.30;;;;;;;;;;5051009;28;20509;-56
2022/12/02 14:14:40;;;;;;;6.27;4.50;;;;;;;;;;5031716;28;22572;-57
2022/12/02 14:17:06;;;;;;;4.90;3.80;;;;;;;;;;5039932;28;20541;-57
2022/12/02 14:19:32;;;;;;;8.17;5.37;;;;;;;;;;5015960;28;20493;-59
2022/12/02 14:21:58;;;;;;;7.27;4.03;;;;;;;;;;5043417;28;20559;-57
2022/12/02 14:24:24;;;;;;;9.60;4.77;;;;;;;;;;5012122;28;20902;-57
2022/12/02 14:26:50;;;;;;;7.50;4.77;;;;;;;;;;5039894;28;20454;-56
2022/12/02 14:29:16;;;;;;;5.50;4.70;;;;;;;;;;5032220;28;20437;-56
2022/12/02 14:31:42;;;;;;;8.03;4.63;;;;;;;;;;5038382;28;20476;-56